createdAt,value
2022-11-03T00:00:41.592Z,1.35
2022-11-03T00:06:02.237Z,1.60
2022-11-03T00:16:08.147Z,1.67
2022-11-03T00:21:13.432Z,1.50
2022-11-03T00:26:23.435Z,2.60
2022-11-03T00:31:30.559Z,1.55
2022-11-03T00:36:35.885Z,1.50
2022-11-03T00:41:38.389Z,1.38
2022-11-03T00:46:40.240Z,1.23
2022-11-03T00:51:42.084Z,1.52
2022-11-03T00:56:44.497Z,1.45
2022-11-03T01:01:47.775Z,1.83
2022-11-03T01:06:53.632Z,1.95
2022-11-03T01:12:03.067Z,1.63
2022-11-03T01:17:14.295Z,1.37
2022-11-03T01:22:17.589Z,1.30
2022-11-03T01:27:20.968Z,1.50
2022-11-03T01:32:22.819Z,1.10
2022-11-03T01:37:25.423Z,1.83
2022-11-03T01:42:27.221Z,1.10
2022-11-03T01:47:35.264Z,1.63
2022-11-03T01:52:51.488Z,1.23
2022-11-03T01:57:59.946Z,1.02
2022-11-03T02:03:02.157Z,1.10
2022-11-03T02:13:24.607Z,1.20
2022-11-03T02:23:39.986Z,1.35
2022-11-03T02:28:41.933Z,1.20
2022-11-03T02:33:49.043Z,1.25
2022-11-03T02:39:02.857Z,1.52
2022-11-03T02:44:14.661Z,1.48
2022-11-03T02:49:16.543Z,1.35
2022-11-03T02:54:26.119Z,1.13
2022-11-03T02:59:32.280Z,1.95
2022-11-03T03:04:48.773Z,1.80
2022-11-03T03:10:00.429Z,1.45
2022-11-03T03:15:04.272Z,2.03
2022-11-03T03:20:14.609Z,1.70
2022-11-03T03:25:43.626Z,2.00
2022-11-03T03:30:48.421Z,1.90
2022-11-03T03:35:52.872Z,1.58
2022-11-03T03:40:57.574Z,1.67
2022-11-03T03:46:07.290Z,1.50
2022-11-03T03:51:10.263Z,1.90
2022-11-03T03:56:12.146Z,1.10
2022-11-03T04:01:13.988Z,1.70
2022-11-03T04:06:15.866Z,1.42
2022-11-03T04:11:36.217Z,1.48
2022-11-03T04:16:56.414Z,1.73
2022-11-03T04:22:16.737Z,1.92
2022-11-03T04:27:27.458Z,2.10
2022-11-03T04:32:30.389Z,1.67
2022-11-03T04:37:32.176Z,1.88
2022-11-03T04:42:35.571Z,2.17
2022-11-03T04:47:37.361Z,2.08
2022-11-03T04:52:39.100Z,2.28
2022-11-03T04:57:40.871Z,2.00
2022-11-03T05:02:43.676Z,2.03
2022-11-03T05:07:48.397Z,2.17
2022-11-03T05:12:51.510Z,2.10
2022-11-03T05:17:53.347Z,2.95
2022-11-03T05:22:55.096Z,3.55
2022-11-03T05:27:56.891Z,2.85
2022-11-03T05:32:59.026Z,2.65
2022-11-03T05:38:03.434Z,2.30
2022-11-03T05:43:09.705Z,2.70
2022-11-03T05:48:19.840Z,2.75
2022-11-03T05:53:29.890Z,3.00
2022-11-03T05:58:40.236Z,2.72
2022-11-03T06:03:42.219Z,2.30
2022-11-03T06:08:46.097Z,2.15
2022-11-03T06:13:48.269Z,1.75
2022-11-03T06:18:50.072Z,1.67
2022-11-03T06:23:55.197Z,1.73
2022-11-03T06:28:57.193Z,2.13
2022-11-03T06:33:59.464Z,1.98
2022-11-03T06:39:09.777Z,1.70
2022-11-03T06:44:24.874Z,1.75
2022-11-03T06:49:35.049Z,2.08
2022-11-03T06:59:39.973Z,2.83
2022-11-03T07:04:41.815Z,6.75
2022-11-03T07:09:44.000Z,6.10
2022-11-03T07:14:46.582Z,3.85
2022-11-03T07:19:48.627Z,2.90
2022-11-03T07:24:55.638Z,5.22
2022-11-03T07:30:11.655Z,3.15
2022-11-03T07:35:53.292Z,4.47
2022-11-03T07:40:58.047Z,3.03
2022-11-03T07:46:01.994Z,2.42
2022-11-03T07:51:22.360Z,2.97
2022-11-03T07:56:33.131Z,2.17
2022-11-03T08:01:44.941Z,1.90
2022-11-03T08:06:47.255Z,1.77
2022-11-03T08:11:50.536Z,1.75
2022-11-03T08:16:52.340Z,2.13
2022-11-03T08:21:54.149Z,1.55
2022-11-03T08:26:56.321Z,1.65
2022-11-03T08:31:58.202Z,1.40
2022-11-03T08:36:59.993Z,1.10
2022-11-03T08:42:01.787Z,1.13
2022-11-03T08:47:03.589Z,1.40
2022-11-03T08:52:05.484Z,1.10
2022-11-03T08:57:07.350Z,0.90
2022-11-03T09:02:09.378Z,1.00
2022-11-03T09:07:11.197Z,1.10
2022-11-03T09:12:13.100Z,0.93
2022-11-03T09:17:14.986Z,1.40
2022-11-03T09:22:16.909Z,1.20
2022-11-03T09:27:19.301Z,1.10
2022-11-03T09:32:23.588Z,0.80
2022-11-03T09:37:25.674Z,0.95
2022-11-03T09:42:27.571Z,0.90
2022-11-03T09:47:33.970Z,0.80
2022-11-03T09:52:37.274Z,0.98
2022-11-03T09:57:39.094Z,0.80
2022-11-03T10:02:43.382Z,0.88
2022-11-03T10:07:45.767Z,0.80
2022-11-03T10:12:49.930Z,0.95
2022-11-03T10:17:52.441Z,0.93
2022-11-03T10:22:55.363Z,1.25
2022-11-03T10:28:14.864Z,1.13
2022-11-03T10:33:34.491Z,1.10
2022-11-03T10:38:36.518Z,1.00
2022-11-03T10:43:39.651Z,1.15
2022-11-03T10:48:41.871Z,1.30
2022-11-03T10:53:43.842Z,0.77
2022-11-03T10:58:45.899Z,0.65
2022-11-03T11:03:47.867Z,1.10
2022-11-03T11:08:59.628Z,1.40
2022-11-03T11:14:21.665Z,0.93
2022-11-03T11:19:25.279Z,1.35
2022-11-03T11:24:46.424Z,3.20
2022-11-03T11:29:48.292Z,1.10
2022-11-03T11:34:50.101Z,1.00
2022-11-03T11:39:51.887Z,1.10
2022-11-03T11:44:58.902Z,1.25
2022-11-03T11:50:06.819Z,1.25
2022-11-03T11:55:37.087Z,1.50
2022-11-03T12:00:51.459Z,1.57
2022-11-03T12:05:53.337Z,1.35
2022-11-03T12:10:58.299Z,1.65
2022-11-03T12:16:00.223Z,1.50
2022-11-03T12:21:09.892Z,1.52
2022-11-03T12:26:16.070Z,1.30
2022-11-03T12:31:18.071Z,1.20
2022-11-03T12:36:19.885Z,1.70
2022-11-03T12:41:24.507Z,1.45
2022-11-03T12:46:26.713Z,1.35
2022-11-03T12:51:28.504Z,1.60
2022-11-03T12:56:30.284Z,1.63
2022-11-03T13:01:33.404Z,2.13
2022-11-03T13:06:35.429Z,2.10
2022-11-03T13:11:56.109Z,1.60
2022-11-03T13:16:57.928Z,1.52
2022-11-03T13:22:00.098Z,1.85
2022-11-03T13:27:01.977Z,1.50
2022-11-03T13:32:04.789Z,1.77
2022-11-03T13:37:06.704Z,1.85
2022-11-03T13:42:08.596Z,1.92
2022-11-03T13:47:11.892Z,2.22
2022-11-03T13:52:14.105Z,2.35
2022-11-03T14:07:59.454Z,2.70
2022-11-03T14:13:01.237Z,3.05
2022-11-03T14:18:03.053Z,2.75
2022-11-03T14:23:04.951Z,2.60
2022-11-03T14:28:07.194Z,2.97
2022-11-03T14:33:09.886Z,3.13
2022-11-03T14:38:11.936Z,3.58
2022-11-03T14:43:13.808Z,3.67
2022-11-03T14:48:15.617Z,4.05
2022-11-03T14:53:17.536Z,3.97
2022-11-03T14:58:19.340Z,3.90
2022-11-03T15:03:21.150Z,4.28
2022-11-03T15:08:24.014Z,4.53
2022-11-03T15:13:25.836Z,4.57
2022-11-03T15:18:27.678Z,4.25
2022-11-03T15:28:51.413Z,5.07
2022-11-03T15:33:53.635Z,4.53
2022-11-03T15:38:55.440Z,5.70
2022-11-03T15:43:57.252Z,6.13
2022-11-03T15:48:59.079Z,6.22
2022-11-03T15:54:01.013Z,6.35
2022-11-03T15:59:02.843Z,7.32
2022-11-03T16:04:04.715Z,5.43
2022-11-03T16:09:06.533Z,6.05
2022-11-03T16:14:08.344Z,6.03
2022-11-03T16:19:10.499Z,6.47
2022-11-03T16:24:12.492Z,6.47
2022-11-03T16:29:14.286Z,6.30
2022-11-03T16:34:17.236Z,5.78
2022-11-03T16:39:19.123Z,6.10
2022-11-03T16:44:21.023Z,6.57
2022-11-03T16:49:22.962Z,6.05
2022-11-03T16:54:24.788Z,5.88
2022-11-03T16:59:26.648Z,6.60
2022-11-03T17:04:28.483Z,6.97
2022-11-03T17:09:30.301Z,6.68
2022-11-03T17:14:32.160Z,6.90
2022-11-03T17:19:33.971Z,7.13
2022-11-03T17:24:35.954Z,6.75
2022-11-03T17:29:44.584Z,7.22
2022-11-03T17:34:46.523Z,6.88
2022-11-03T17:39:48.461Z,7.22
2022-11-03T17:44:51.968Z,6.72
2022-11-03T17:49:53.765Z,6.97
2022-11-03T17:54:58.339Z,6.72
2022-11-03T18:00:01.090Z,6.93
2022-11-03T18:05:14.176Z,6.88
2022-11-03T18:10:19.065Z,6.72
2022-11-03T18:15:23.727Z,7.00
2022-11-03T18:20:29.337Z,7.53
2022-11-03T18:25:31.263Z,8.38
2022-11-03T18:30:33.300Z,8.93
2022-11-03T18:35:35.744Z,8.88
2022-11-03T18:40:38.891Z,8.52
2022-11-03T18:45:40.888Z,10.02
2022-11-03T18:50:43.324Z,9.93
2022-11-03T18:55:45.977Z,14.02
2022-11-03T19:00:48.679Z,12.45
2022-11-03T19:05:53.235Z,10.32
2022-11-03T19:10:57.229Z,12.10
2022-11-03T19:16:01.604Z,9.70
2022-11-03T19:21:11.762Z,9.90
2022-11-03T19:26:35.792Z,9.93
2022-11-03T19:31:42.886Z,9.43
2022-11-03T19:36:46.431Z,9.80
2022-11-03T19:42:06.817Z,9.00
2022-11-03T19:47:15.345Z,11.73
2022-11-03T19:52:18.257Z,13.60
2022-11-03T19:57:20.419Z,13.23
2022-11-03T20:02:23.800Z,13.20
2022-11-03T20:07:31.576Z,14.93
2022-11-03T20:12:33.904Z,14.57
2022-11-03T20:17:35.780Z,13.32
2022-11-03T20:22:40.725Z,13.45
2022-11-03T20:27:42.615Z,13.52
2022-11-03T20:32:46.143Z,13.90
2022-11-03T20:37:52.440Z,13.35
2022-11-03T20:42:56.965Z,13.95
2022-11-03T20:47:58.929Z,14.27
2022-11-03T20:53:00.821Z,12.40
2022-11-03T20:58:02.637Z,13.80
2022-11-03T21:03:31.422Z,12.85
2022-11-03T21:08:37.138Z,12.40
2022-11-03T21:13:39.046Z,12.88
2022-11-03T21:18:59.403Z,14.10
2022-11-03T21:24:01.315Z,12.68
2022-11-03T21:29:03.262Z,13.93
2022-11-03T21:34:05.223Z,12.88
2022-11-03T21:39:07.039Z,12.10
2022-11-03T21:44:14.979Z,13.07
2022-11-03T21:49:35.607Z,13.05
2022-11-03T21:59:40.189Z,12.95
2022-11-03T22:04:42.447Z,11.98
2022-11-03T22:09:44.296Z,12.55
2022-11-03T22:15:04.458Z,11.93
2022-11-03T22:20:25.109Z,11.57
2022-11-03T22:25:45.632Z,12.32
2022-11-03T22:31:06.433Z,10.80
2022-11-03T22:41:46.836Z,11.93
2022-11-03T22:51:50.327Z,9.77
2022-11-03T22:56:52.681Z,10.85
2022-11-03T23:01:54.645Z,10.18
2022-11-03T23:06:56.548Z,10.18
2022-11-03T23:11:58.357Z,8.73
2022-11-03T23:17:00.157Z,10.35
2022-11-03T23:22:02.028Z,10.75
2022-11-03T23:27:05.198Z,9.90
2022-11-03T23:32:07.244Z,10.48
2022-11-03T23:37:09.119Z,10.02
2022-11-03T23:42:10.924Z,10.43
2022-11-03T23:47:31.499Z,10.23
2022-11-03T23:52:33.318Z,10.32
2022-11-03T23:57:54.419Z,9.95
